createdAt,value
2023-04-07T00:14:35.015Z,52.32
2023-04-07T00:31:33.691Z,52.05
2023-04-07T00:34:25.005Z,51.82
2023-04-07T00:37:38.946Z,52.03
2023-04-07T00:40:40.812Z,51.95
2023-04-07T00:43:39.312Z,51.91
2023-04-07T00:46:49.406Z,51.78
2023-04-07T00:50:22.186Z,51.89
2023-04-07T00:53:29.031Z,52.05
2023-04-07T00:56:52.956Z,52.20
2023-04-07T01:00:03.555Z,52.32
2023-04-07T01:03:50.417Z,52.37
2023-04-07T01:07:15.615Z,52.30
2023-04-07T01:10:36.615Z,52.36
2023-04-07T01:13:57.810Z,52.39
2023-04-07T01:17:05.349Z,52.60
2023-04-07T01:21:23.655Z,52.81
2023-04-07T01:25:20.565Z,52.89
2023-04-07T01:29:03.259Z,52.97
2023-04-07T01:32:10.358Z,53.15
2023-04-07T01:35:50.166Z,53.16
2023-04-07T01:39:09.767Z,53.37
2023-04-07T01:42:55.678Z,53.60
2023-04-07T01:46:07.871Z,53.66
2023-04-07T01:49:28.159Z,53.90
2023-04-07T01:52:38.572Z,53.98
2023-04-07T01:56:38.240Z,54.08
2023-04-07T01:59:37.464Z,54.27
2023-04-07T02:02:10.557Z,54.35
2023-04-07T02:05:40.054Z,54.45
2023-04-07T02:08:45.793Z,54.46
2023-04-07T02:15:43.795Z,54.83
2023-04-07T02:18:53.333Z,55.02
2023-04-07T02:22:37.748Z,55.17
2023-04-07T02:25:39.671Z,55.35
2023-04-07T02:28:21.843Z,55.46
2023-04-07T02:31:57.013Z,55.63
2023-04-07T02:34:38.849Z,55.74
2023-04-07T02:37:11.670Z,55.76
2023-04-07T02:39:46.909Z,55.96
2023-04-07T02:42:16.381Z,56.07
2023-04-07T02:44:48.372Z,55.99
2023-04-07T02:47:18.232Z,56.11
2023-04-07T02:49:47.811Z,56.27
2023-04-07T02:52:18.649Z,56.23
2023-04-07T02:55:04.100Z,56.28
2023-04-07T02:57:40.191Z,56.23
2023-04-07T03:00:17.167Z,56.33
2023-04-07T03:02:58.885Z,56.48
2023-04-07T03:05:41.753Z,56.51
2023-04-07T03:08:32.704Z,56.45
2023-04-07T03:11:05.158Z,56.58
2023-04-07T03:13:43.053Z,56.49
2023-04-07T03:16:23.708Z,56.41
2023-04-07T03:18:59.867Z,56.57
2023-04-07T03:21:47.577Z,56.47
2023-04-07T03:24:18.266Z,56.49
2023-04-07T03:26:48.430Z,56.61
2023-04-07T03:29:19.741Z,56.69
2023-04-07T03:31:49.714Z,56.89
2023-04-07T03:34:19.441Z,57.00
2023-04-07T03:36:48.639Z,57.40
2023-04-07T03:39:18.514Z,57.47
2023-04-07T03:41:48.125Z,58.86
2023-04-07T03:44:18.056Z,59.45
2023-04-07T03:46:49.995Z,59.15
2023-04-07T03:49:20.552Z,60.82
2023-04-07T03:51:50.418Z,61.00
2023-04-07T03:54:22.234Z,61.61
2023-04-07T03:56:52.342Z,61.28
2023-04-07T03:59:22.503Z,62.23
2023-04-07T04:01:57.074Z,63.26
2023-04-07T04:04:28.891Z,62.79
2023-04-07T04:06:58.842Z,64.27
2023-04-07T04:09:28.048Z,64.16
2023-04-07T04:11:56.562Z,64.44
2023-04-07T04:14:26.990Z,63.79
2023-04-07T04:16:56.178Z,64.76
2023-04-07T04:19:25.716Z,66.25
2023-04-07T04:21:55.617Z,66.87
2023-04-07T04:24:25.126Z,65.27
2023-04-07T04:26:54.224Z,65.61
2023-04-07T04:29:22.484Z,65.02
2023-04-07T04:31:51.858Z,64.97
2023-04-07T04:34:22.524Z,65.81
2023-04-07T04:36:53.171Z,65.34
2023-04-07T04:39:23.554Z,66.39
2023-04-07T04:41:56.943Z,65.93
2023-04-07T04:44:26.464Z,65.78
2023-04-07T04:46:55.771Z,66.08
2023-04-07T04:49:25.574Z,65.80
2023-04-07T04:51:55.021Z,65.67
2023-04-07T04:54:28.883Z,65.37
2023-04-07T04:56:58.719Z,65.07
2023-04-07T04:59:28.135Z,64.69
2023-04-07T05:01:57.969Z,65.49
2023-04-07T05:04:27.886Z,65.41
2023-04-07T05:06:58.415Z,65.18
2023-04-07T05:09:27.911Z,65.43
2023-04-07T05:11:57.842Z,65.69
2023-04-07T05:14:34.321Z,65.62
2023-04-07T05:17:05.272Z,65.86
2023-04-07T05:19:34.113Z,65.38
2023-04-07T05:22:06.544Z,65.31
2023-04-07T05:24:37.558Z,65.92
2023-04-07T05:27:06.759Z,66.39
2023-04-07T05:29:35.807Z,65.86
2023-04-07T05:32:06.205Z,66.13
2023-04-07T05:34:36.161Z,66.58
2023-04-07T05:37:05.906Z,66.13
2023-04-07T05:39:35.368Z,66.32
2023-04-07T05:42:05.141Z,66.77
2023-04-07T05:44:34.692Z,66.23
2023-04-07T05:47:08.494Z,66.44
2023-04-07T05:49:45.211Z,66.32
2023-04-07T05:52:17.022Z,66.70
2023-04-07T05:54:48.488Z,65.72
2023-04-07T05:57:17.673Z,65.38
2023-04-07T05:59:45.937Z,65.58
2023-04-07T06:02:16.055Z,65.37
2023-04-07T06:04:46.870Z,65.49
2023-04-07T06:07:17.219Z,65.26
2023-04-07T06:09:47.261Z,65.28
2023-04-07T06:12:16.888Z,66.35
2023-04-07T06:14:52.996Z,65.96
2023-04-07T06:17:22.957Z,65.41
2023-04-07T06:19:52.145Z,65.13
2023-04-07T06:22:22.206Z,64.77
2023-04-07T06:24:52.462Z,64.44
2023-04-07T06:27:22.447Z,64.27
2023-04-07T06:29:51.732Z,64.08
2023-04-07T06:32:22.465Z,63.34
2023-04-07T06:34:51.117Z,63.03
2023-04-07T06:37:20.582Z,62.90
2023-04-07T06:39:50.342Z,62.97
2023-04-07T06:42:19.471Z,62.84
2023-04-07T06:44:47.631Z,62.83
2023-04-07T06:47:17.244Z,63.15
2023-04-07T06:49:48.516Z,62.47
2023-04-07T06:52:18.106Z,61.79
2023-04-07T06:54:48.002Z,61.56
2023-04-07T06:57:17.394Z,61.55
2023-04-07T06:59:47.187Z,61.46
2023-04-07T07:02:17.310Z,61.09
2023-04-07T07:04:47.438Z,60.88
2023-04-07T07:07:17.206Z,60.83
2023-04-07T07:09:47.370Z,60.32
2023-04-07T07:12:17.645Z,60.51
2023-04-07T07:14:55.088Z,60.72
2023-04-07T07:17:24.495Z,60.40
2023-04-07T07:19:55.031Z,60.39
2023-04-07T07:22:24.171Z,59.81
2023-04-07T07:24:52.497Z,58.06
2023-04-07T07:27:21.820Z,57.08
2023-04-07T07:29:51.160Z,56.67
2023-04-07T07:32:20.699Z,55.56
2023-04-07T07:34:50.316Z,55.22
2023-04-07T07:37:19.386Z,55.37
2023-04-07T07:39:48.282Z,54.85
2023-04-07T07:42:17.992Z,54.96
2023-04-07T07:44:50.579Z,56.10
2023-04-07T07:47:20.329Z,55.88
2023-04-07T07:49:49.864Z,55.30
2023-04-07T07:52:20.223Z,54.93
2023-04-07T07:54:51.276Z,53.66
2023-04-07T07:57:20.754Z,53.69
2023-04-07T07:59:50.265Z,53.40
2023-04-07T08:02:30.163Z,54.94
2023-04-07T08:05:00.495Z,55.09
2023-04-07T08:07:30.258Z,53.53
2023-04-07T08:10:00.458Z,51.65
2023-04-07T08:12:29.833Z,52.55
2023-04-07T08:14:59.337Z,52.28
2023-04-07T08:17:29.127Z,51.27
2023-04-07T08:19:59.617Z,50.60
2023-04-07T08:22:28.828Z,49.28
2023-04-07T08:24:57.048Z,48.80
2023-04-07T08:27:26.499Z,49.19
2023-04-07T08:30:01.823Z,49.61
2023-04-07T08:32:37.191Z,49.86
2023-04-07T08:35:08.906Z,48.58
2023-04-07T08:37:40.698Z,47.88
2023-04-07T08:40:12.044Z,48.40
2023-04-07T08:42:46.603Z,48.58
2023-04-07T08:45:19.631Z,47.95
2023-04-07T08:47:54.136Z,48.01
2023-04-07T08:50:25.857Z,47.87
2023-04-07T08:53:00.908Z,48.49
2023-04-07T08:55:30.566Z,48.47
2023-04-07T08:58:01.617Z,48.53
2023-04-07T09:00:32.584Z,47.79
2023-04-07T09:03:03.056Z,46.77
2023-04-07T09:05:32.651Z,47.26
2023-04-07T09:08:03.477Z,46.66
2023-04-07T09:10:32.815Z,47.09
2023-04-07T09:13:02.201Z,47.52
2023-04-07T09:15:32.736Z,47.20
2023-04-07T09:18:02.486Z,47.20
2023-04-07T09:20:56.404Z,47.38
2023-04-07T09:23:31.710Z,47.60
2023-04-07T09:26:18.234Z,47.07
2023-04-07T09:28:51.178Z,45.85
2023-04-07T09:31:21.527Z,47.34
2023-04-07T09:33:52.732Z,47.19
2023-04-07T09:36:41.403Z,46.55
2023-04-07T09:39:11.770Z,46.68
2023-04-07T09:41:41.528Z,47.45
2023-04-07T09:44:11.526Z,47.29
2023-04-07T09:46:51.903Z,47.77
2023-04-07T09:49:23.681Z,47.62
2023-04-07T09:52:00.184Z,46.99
2023-04-07T09:54:38.933Z,47.31
2023-04-07T09:57:09.390Z,46.40
2023-04-07T09:59:42.059Z,46.68
2023-04-07T10:02:12.518Z,46.47
2023-04-07T10:04:43.525Z,46.38
2023-04-07T10:07:15.433Z,46.38
2023-04-07T10:09:45.584Z,45.88
2023-04-07T10:12:18.898Z,46.69
2023-04-07T10:14:50.697Z,45.56
2023-04-07T10:17:22.973Z,45.66
2023-04-07T10:19:56.039Z,45.70
2023-04-07T10:22:27.759Z,45.50
2023-04-07T10:25:06.029Z,46.28
2023-04-07T10:27:38.989Z,46.48
2023-04-07T10:30:14.470Z,47.07
2023-04-07T10:32:48.726Z,46.96
2023-04-07T10:35:18.709Z,46.83
2023-04-07T10:38:16.374Z,46.83
2023-04-07T10:40:45.769Z,46.45
2023-04-07T10:43:33.714Z,46.73
2023-04-07T10:46:03.459Z,46.83
2023-04-07T10:48:35.866Z,45.77
2023-04-07T10:51:16.186Z,46.10
2023-04-07T10:54:22.834Z,46.24
2023-04-07T10:57:13.919Z,45.75
2023-04-07T10:59:58.724Z,46.09
2023-04-07T11:02:35.280Z,46.45
2023-04-07T11:05:06.949Z,46.64
2023-04-07T11:07:48.375Z,46.74
2023-04-07T11:10:19.825Z,47.12
2023-04-07T11:13:06.475Z,46.78
2023-04-07T11:15:40.343Z,46.15
2023-04-07T11:18:19.303Z,45.11
2023-04-07T11:20:52.060Z,45.47
2023-04-07T11:23:25.816Z,46.04
2023-04-07T11:26:04.240Z,45.34
2023-04-07T11:28:33.839Z,45.53
2023-04-07T11:31:08.274Z,45.70
2023-04-07T11:33:39.815Z,45.30
2023-04-07T11:36:09.234Z,45.64
2023-04-07T11:38:40.010Z,46.06
2023-04-07T11:41:14.006Z,45.22
2023-04-07T11:43:43.281Z,44.78
2023-04-07T11:46:16.044Z,44.67
2023-04-07T11:48:48.346Z,44.36
2023-04-07T11:51:18.869Z,43.79
2023-04-07T11:53:54.295Z,43.60
2023-04-07T11:56:24.496Z,44.27
2023-04-07T11:58:54.925Z,44.57
2023-04-07T12:01:38.871Z,44.39
2023-04-07T12:04:12.776Z,44.21
2023-04-07T12:06:43.908Z,44.12
2023-04-07T12:09:31.591Z,44.24
2023-04-07T12:12:02.717Z,44.37
2023-04-07T12:14:32.401Z,44.70
2023-04-07T12:17:03.219Z,44.87
2023-04-07T12:19:34.211Z,44.26
2023-04-07T12:22:03.726Z,44.47
2023-04-07T12:24:33.301Z,44.38
2023-04-07T12:27:02.632Z,44.88
2023-04-07T12:29:32.372Z,43.76
2023-04-07T12:32:02.374Z,43.75
2023-04-07T12:34:32.825Z,44.06
2023-04-07T12:37:02.240Z,44.54
2023-04-07T12:39:33.004Z,44.31
2023-04-07T12:42:03.487Z,44.68
2023-04-07T12:44:32.728Z,44.93
2023-04-07T12:47:03.224Z,44.95
2023-04-07T12:49:33.065Z,45.45
2023-04-07T12:52:06.230Z,45.75
2023-04-07T12:54:35.641Z,46.02
2023-04-07T12:57:05.101Z,46.08
2023-04-07T12:59:34.222Z,46.05
2023-04-07T13:02:04.228Z,45.94
2023-04-07T13:04:34.605Z,46.22
2023-04-07T13:07:06.461Z,46.40
2023-04-07T13:09:35.928Z,46.37
2023-04-07T13:12:05.289Z,46.40
2023-04-07T13:14:34.598Z,46.43
2023-04-07T13:17:05.520Z,46.38
2023-04-07T13:19:37.408Z,46.29
2023-04-07T13:22:06.883Z,46.00
2023-04-07T13:24:36.714Z,46.08
2023-04-07T13:27:06.076Z,46.16
2023-04-07T13:29:35.313Z,46.03
2023-04-07T13:32:08.615Z,46.01
2023-04-07T13:34:38.109Z,45.91
2023-04-07T13:37:07.257Z,46.07
2023-04-07T13:39:36.602Z,46.15
2023-04-07T13:42:06.832Z,45.97
2023-04-07T13:44:36.977Z,46.06
2023-04-07T13:47:06.970Z,46.09
2023-04-07T13:49:36.407Z,46.41
2023-04-07T13:52:05.908Z,46.04
2023-04-07T13:54:36.083Z,45.74
2023-04-07T13:57:06.563Z,45.58
2023-04-07T13:59:36.565Z,46.08
2023-04-07T14:02:07.773Z,46.69
2023-04-07T14:04:37.686Z,47.53
2023-04-07T14:07:06.930Z,47.70
2023-04-07T14:09:36.122Z,47.66
2023-04-07T14:12:08.396Z,47.66
2023-04-07T14:14:38.202Z,47.70
2023-04-07T14:17:07.919Z,47.75
2023-04-07T14:19:37.269Z,47.99
2023-04-07T14:22:07.532Z,48.23
2023-04-07T14:24:38.064Z,48.54
2023-04-07T14:27:07.588Z,48.89
2023-04-07T14:29:37.563Z,49.25
2023-04-07T14:32:07.804Z,49.49
2023-04-07T14:34:40.632Z,49.34
2023-04-07T14:37:09.892Z,49.97
2023-04-07T14:39:39.474Z,50.28
2023-04-07T14:42:08.795Z,50.28
2023-04-07T14:44:40.062Z,50.69
2023-04-07T14:47:09.279Z,50.62
2023-04-07T14:49:38.964Z,50.57
2023-04-07T14:52:09.116Z,50.92
2023-04-07T14:54:39.804Z,50.87
2023-04-07T14:57:09.161Z,51.44
2023-04-07T14:59:39.484Z,52.20
2023-04-07T15:02:10.200Z,52.15
2023-04-07T15:04:40.544Z,52.03
2023-04-07T15:07:10.753Z,52.59
2023-04-07T15:09:41.161Z,52.86
2023-04-07T15:12:10.898Z,52.57
2023-04-07T15:14:41.898Z,52.26
2023-04-07T15:17:11.506Z,52.41
2023-04-07T15:19:40.512Z,52.15
2023-04-07T15:22:11.431Z,51.98
2023-04-07T15:24:41.273Z,52.46
2023-04-07T15:27:11.091Z,52.17
2023-04-07T15:29:41.938Z,52.21
2023-04-07T15:32:11.206Z,52.24
2023-04-07T15:34:41.139Z,52.32
2023-04-07T15:37:11.528Z,52.44
2023-04-07T15:39:41.122Z,52.59
2023-04-07T15:42:12.384Z,52.91
2023-04-07T15:44:41.940Z,53.03
2023-04-07T15:47:11.480Z,53.27
2023-04-07T15:49:41.722Z,53.45
2023-04-07T15:52:14.272Z,53.55
2023-04-07T15:54:43.333Z,53.71
2023-04-07T15:57:14.933Z,54.27
2023-04-07T15:59:44.724Z,54.12
2023-04-07T16:02:14.630Z,54.59
2023-04-07T16:04:46.787Z,54.64
2023-04-07T16:07:16.581Z,54.83
2023-04-07T16:09:45.821Z,54.83
2023-04-07T16:12:16.047Z,54.97
2023-04-07T16:14:46.100Z,55.20
2023-04-07T16:17:15.737Z,54.76
2023-04-07T16:19:45.422Z,55.17
2023-04-07T16:22:36.441Z,55.16
2023-04-07T16:25:07.631Z,55.06
2023-04-07T16:27:41.534Z,55.16
2023-04-07T16:30:15.048Z,55.32
2023-04-07T16:32:48.147Z,55.16
2023-04-07T16:35:17.899Z,55.77
2023-04-07T16:37:51.409Z,55.16
2023-04-07T16:40:22.847Z,55.07
2023-04-07T16:42:52.441Z,55.26
2023-04-07T16:45:22.884Z,55.26
2023-04-07T16:47:52.265Z,55.26
2023-04-07T16:50:21.989Z,55.14
2023-04-07T16:52:52.734Z,55.05
2023-04-07T16:55:25.618Z,55.03
2023-04-07T16:57:56.392Z,55.20
2023-04-07T17:00:27.344Z,54.94
2023-04-07T17:02:56.640Z,54.70
2023-04-07T17:05:26.443Z,54.43
2023-04-07T17:07:57.286Z,54.41
2023-04-07T17:10:30.485Z,54.37
2023-04-07T17:12:59.935Z,54.04
2023-04-07T17:15:29.520Z,54.01
2023-04-07T17:18:06.580Z,53.94
2023-04-07T17:20:39.038Z,53.91
2023-04-07T17:23:09.961Z,53.82
2023-04-07T17:25:40.037Z,53.75
2023-04-07T17:28:11.492Z,53.73
2023-04-07T17:31:13.623Z,53.73
2023-04-07T17:34:10.984Z,53.87
2023-04-07T17:36:50.702Z,53.96
2023-04-07T17:39:23.130Z,53.99
2023-04-07T17:41:52.470Z,54.08
2023-04-07T17:44:22.371Z,54.11
2023-04-07T17:46:52.036Z,54.06
2023-04-07T17:49:22.186Z,54.21
2023-04-07T17:51:51.234Z,54.19
2023-04-07T17:54:19.797Z,54.16
2023-04-07T17:56:49.400Z,54.29
2023-04-07T17:59:18.887Z,54.12
2023-04-07T18:01:48.571Z,54.32
2023-04-07T18:04:18.362Z,54.23
2023-04-07T18:06:48.484Z,54.32
2023-04-07T18:09:18.989Z,54.37
2023-04-07T18:11:48.892Z,54.37
2023-04-07T18:14:18.387Z,54.36
2023-04-07T18:16:49.325Z,54.28
2023-04-07T18:19:20.238Z,54.27
2023-04-07T18:21:53.457Z,54.22
2023-04-07T18:24:23.990Z,54.08
2023-04-07T18:26:54.867Z,53.93
2023-04-07T18:29:25.053Z,54.00
2023-04-07T18:31:54.427Z,53.97
2023-04-07T18:34:25.492Z,54.00
2023-04-07T18:36:55.926Z,53.88
2023-04-07T18:39:27.786Z,53.99
2023-04-07T18:41:57.594Z,54.06
2023-04-07T18:44:27.830Z,53.98
2023-04-07T18:46:59.071Z,54.10
2023-04-07T18:49:32.578Z,54.04
2023-04-07T18:52:02.405Z,54.13
2023-04-07T18:54:32.479Z,54.20
2023-04-07T18:57:01.989Z,54.15
2023-04-07T18:59:31.745Z,54.08
2023-04-07T19:02:01.701Z,54.08
2023-04-07T19:04:31.374Z,54.10
2023-04-07T19:07:07.077Z,54.21
2023-04-07T19:09:37.332Z,54.10
2023-04-07T19:12:09.066Z,54.02
2023-04-07T19:14:38.293Z,54.05
2023-04-07T19:17:07.757Z,54.09
2023-04-07T19:19:37.054Z,54.22
2023-04-07T19:22:06.281Z,54.32
2023-04-07T19:24:36.229Z,54.33
2023-04-07T19:27:05.991Z,54.35
2023-04-07T19:29:35.743Z,54.31
2023-04-07T19:32:05.836Z,54.37
2023-04-07T19:34:35.821Z,54.28
2023-04-07T19:37:05.217Z,54.31
2023-04-07T19:39:34.875Z,54.36
2023-04-07T19:42:04.462Z,54.26
2023-04-07T19:44:34.673Z,54.19
2023-04-07T19:47:05.848Z,54.15
2023-04-07T19:49:36.029Z,54.42
2023-04-07T19:52:05.559Z,54.44
2023-04-07T19:54:35.144Z,54.32
2023-04-07T19:57:04.540Z,54.56
2023-04-07T19:59:34.298Z,54.47
2023-04-07T20:02:04.840Z,54.56
2023-04-07T20:04:34.235Z,54.60
2023-04-07T20:07:04.511Z,54.49
2023-04-07T20:09:35.369Z,54.48
2023-04-07T20:12:05.269Z,54.51
2023-04-07T20:14:34.677Z,54.55
2023-04-07T20:17:04.290Z,54.64
2023-04-07T20:19:33.590Z,54.48
2023-04-07T20:22:06.803Z,54.58
2023-04-07T20:24:37.108Z,54.59
2023-04-07T20:27:08.903Z,54.77
2023-04-07T20:29:38.785Z,54.80
2023-04-07T20:32:09.693Z,54.70
2023-04-07T20:34:39.394Z,54.92
2023-04-07T20:37:09.205Z,54.88
2023-04-07T20:39:39.213Z,55.16
2023-04-07T20:42:08.830Z,55.28
2023-04-07T20:44:38.301Z,55.47
2023-04-07T20:47:11.293Z,55.55
2023-04-07T20:49:42.176Z,56.11
2023-04-07T20:52:11.969Z,55.79
2023-04-07T20:54:44.306Z,56.02
2023-04-07T20:57:13.797Z,56.08
2023-04-07T20:59:43.356Z,56.40
2023-04-07T21:02:13.371Z,56.07
2023-04-07T21:04:44.029Z,56.25
2023-04-07T21:07:13.200Z,56.02
2023-04-07T21:09:43.726Z,56.13
2023-04-07T21:12:13.685Z,56.44
2023-04-07T21:14:43.292Z,56.31
2023-04-07T21:17:12.541Z,56.51
2023-04-07T21:19:42.259Z,56.23
2023-04-07T21:22:15.015Z,56.40
2023-04-07T21:24:48.302Z,56.49
2023-04-07T21:27:19.714Z,56.68
2023-04-07T21:29:49.305Z,56.69
2023-04-07T21:32:18.982Z,57.00
2023-04-07T21:34:54.339Z,57.23
2023-04-07T21:37:28.549Z,57.20
2023-04-07T21:39:57.912Z,57.18
2023-04-07T21:42:31.265Z,57.17
2023-04-07T21:45:00.892Z,57.14
2023-04-07T21:47:30.436Z,57.19
2023-04-07T21:50:02.540Z,57.44
2023-04-07T21:52:32.272Z,57.41
2023-04-07T21:55:02.100Z,57.40
2023-04-07T21:57:33.646Z,57.89
2023-04-07T22:00:05.710Z,57.75
2023-04-07T22:02:35.852Z,57.60
2023-04-07T22:05:06.735Z,57.67
2023-04-07T22:07:36.638Z,57.86
2023-04-07T22:10:11.065Z,57.69
2023-04-07T22:12:41.284Z,58.16
2023-04-07T22:15:14.278Z,58.34
2023-04-07T22:17:44.547Z,58.46
2023-04-07T22:20:15.007Z,58.54
2023-04-07T22:22:45.447Z,58.31
2023-04-07T22:25:18.710Z,58.31
2023-04-07T22:27:50.133Z,58.35
2023-04-07T22:30:20.427Z,58.57
2023-04-07T22:32:50.067Z,58.42
2023-04-07T22:35:19.809Z,58.63
2023-04-07T22:37:53.005Z,58.58
2023-04-07T22:40:27.530Z,58.64
2023-04-07T22:42:57.971Z,58.55
2023-04-07T22:45:29.489Z,58.56
2023-04-07T22:47:59.416Z,58.38
2023-04-07T22:50:29.471Z,58.60
2023-04-07T22:52:59.622Z,58.94
2023-04-07T22:55:29.903Z,59.00
2023-04-07T22:58:00.929Z,58.94
2023-04-07T23:00:31.167Z,59.15
2023-04-07T23:03:01.290Z,59.07
2023-04-07T23:05:31.191Z,59.14
2023-04-07T23:08:01.866Z,59.16
2023-04-07T23:10:33.370Z,59.17
2023-04-07T23:13:02.719Z,59.51
2023-04-07T23:15:33.644Z,59.46
2023-04-07T23:18:03.316Z,59.55
2023-04-07T23:20:32.627Z,59.53
2023-04-07T23:23:01.898Z,59.75
2023-04-07T23:25:32.193Z,59.83
2023-04-07T23:28:02.270Z,59.91
2023-04-07T23:30:32.313Z,60.21
2023-04-07T23:33:02.369Z,60.11
2023-04-07T23:35:32.543Z,60.07
2023-04-07T23:38:03.065Z,59.93
2023-04-07T23:40:33.148Z,60.38
2023-04-07T23:43:03.272Z,59.99
2023-04-07T23:45:33.079Z,60.27
2023-04-07T23:48:03.622Z,60.00
2023-04-07T23:50:33.533Z,60.17
2023-04-07T23:53:04.053Z,59.96
2023-04-07T23:55:33.903Z,60.04
2023-04-07T23:58:04.094Z,60.29
